This is the latest recevied weather packets stored in our database for station/object K8RRT. If no packets are shown the sender has not sent any weather packets the latest 10 day(s).
| Time | Temp. | Humidity | Pressure | Rain* | Wind** | Luminosity | Snow |
|---|---|---|---|---|---|---|---|
| 1778013895 | 23.89° C | 49% | 1005.4 hPa | 0 mm | - | 191 W/m² | - |
| 1778013592 | 24.44° C | 48% | 1005.5 hPa | 0 mm | - | 279 W/m² | - |
| 1778013288 | 25° C | 48% | 1005.8 hPa | 0 mm | - | 410 W/m² | - |
| 1778012985 | 24.44° C | 48% | 1005.8 hPa | 0 mm | - | 524 W/m² | - |
| 1778012682 | 24.44° C | 50% | 1005.8 hPa | 0 mm | - | 326 W/m² | - |
| 1778012377 | 23.89° C | 51% | 1005.7 hPa | 0 mm | - | 313 W/m² | - |
| 1778012075 | 23.89° C | 51% | 1005.9 hPa | 0 mm | - | 288 W/m² | - |
| 1778011773 | 23.89° C | 51% | 1005.9 hPa | 0 mm | - | 229 W/m² | - |
| 1778011470 | 23.89° C | 50% | 1006 hPa | 0 mm | - | 234 W/m² | - |
| 1778011165 | 23.33° C | 51% | 1005.8 hPa | 0 mm | - | 249 W/m² | - |
| 1778010863 | 23.33° C | 51% | 1005.9 hPa | 0 mm | - | 224 W/m² | - |
| 1778010560 | 23.33° C | 50% | 1006.2 hPa | 0 mm | - | 229 W/m² | - |
| 1778010258 | 23.33° C | 50% | 1006.1 hPa | 0 mm | - | 254 W/m² | - |
| 1778009957 | 23.89° C | 50% | 1006.4 hPa | 0 mm | - | 226 W/m² | - |
| 1778009655 | 23.89° C | 51% | 1006.3 hPa | 0 mm | - | 289 W/m² | - |
| 1778009353 | 23.89° C | 50% | 1006.5 hPa | 0 mm | - | 249 W/m² | - |
| 1778009051 | 23.89° C | 51% | 1006.7 hPa | 0 mm | - | 282 W/m² | - |
| 1778008748 | 23.89° C | 49% | 1006.6 hPa | 0 mm | - | 291 W/m² | - |
| 1778008447 | 23.89° C | 50% | 1006.8 hPa | 0 mm | - | 315 W/m² | - |
| 1778008143 | 23.89° C | 50% | 1006.7 hPa | 0 mm | - | 269 W/m² | - |
| 1778007838 | 23.89° C | 50% | 1006.8 hPa | 0 mm | - | 354 W/m² | - |
| 1778007534 | 23.89° C | 50% | 1006.8 hPa | 0 mm | - | 365 W/m² | - |
| 1778007231 | 23.89° C | 50% | 1006.8 hPa | 0 mm | - | 330 W/m² | - |
| 1778006927 | 23.89° C | 50% | 1006.9 hPa | 0 mm | - | 385 W/m² | - |
| 1778006624 | 24.44° C | 49% | 1007.2 hPa | 0 mm | - | 410 W/m² | - |
* Rain latest hour (hover to see other rain measurements)
** Current wind speed in m/s (hover to see current wind gust speed)